createdAt,value
2022-08-24T00:00:35.402Z,109.10
2022-08-24T00:03:08.206Z,66.90
2022-08-24T00:08:27.998Z,24.40
2022-08-24T00:11:00.504Z,11.40
2022-08-24T00:13:33.551Z,17.20
2022-08-24T00:16:15.551Z,10.40
2022-08-24T00:18:54.440Z,10.00
2022-08-24T00:21:23.094Z,7.80
2022-08-24T00:24:03.092Z,8.30
2022-08-24T00:26:36.870Z,10.10
2022-08-24T00:29:13.806Z,7.80
2022-08-24T00:31:46.479Z,8.40
2022-08-24T00:34:18.889Z,8.00
2022-08-24T00:36:50.302Z,14.70
2022-08-24T00:39:22.677Z,8.10
2022-08-24T00:41:54.498Z,8.90
2022-08-24T00:44:26.908Z,10.00
2022-08-24T00:47:11.615Z,7.80
2022-08-24T00:49:48.367Z,7.60
2022-08-24T00:52:31.255Z,9.00
2022-08-24T00:55:08.616Z,8.00
2022-08-24T00:57:43.209Z,7.50
2022-08-24T01:00:29.291Z,7.30
2022-08-24T01:05:40.104Z,8.40
2022-08-24T01:08:18.398Z,7.90
2022-08-24T01:10:53.721Z,12.30
2022-08-24T01:13:31.323Z,11.10
2022-08-24T01:16:05.169Z,15.50
2022-08-24T01:18:53.558Z,13.00
2022-08-24T01:21:46.860Z,13.30
2022-08-24T01:24:21.937Z,13.50
2022-08-24T01:26:51.239Z,12.10
2022-08-24T01:29:23.983Z,15.10
2022-08-24T01:31:55.112Z,13.30
2022-08-24T01:34:26.257Z,20.40
2022-08-24T01:37:02.976Z,12.60
2022-08-24T01:39:40.633Z,18.40
2022-08-24T01:42:10.832Z,14.60
2022-08-24T01:44:47.404Z,13.10
2022-08-24T01:47:21.107Z,14.40
2022-08-24T01:49:51.643Z,15.90
2022-08-24T01:52:43.399Z,13.90
2022-08-24T01:55:14.728Z,24.20
2022-08-24T01:57:48.017Z,11.90
2022-08-24T02:00:22.184Z,11.80
2022-08-24T02:02:54.307Z,14.40
2022-08-24T02:05:28.426Z,12.40
2022-08-24T02:07:57.561Z,11.30
2022-08-24T02:10:30.286Z,13.10
2022-08-24T02:13:03.787Z,11.40
2022-08-24T02:15:42.611Z,12.60
2022-08-24T02:18:23.392Z,12.40
2022-08-24T02:20:55.620Z,14.10
2022-08-24T02:23:25.025Z,15.60
2022-08-24T02:25:57.691Z,12.70
2022-08-24T02:28:41.072Z,15.40
2022-08-24T02:31:13.244Z,11.50
2022-08-24T02:33:42.231Z,14.00
2022-08-24T02:36:25.442Z,14.20
2022-08-24T02:39:02.795Z,12.40
2022-08-24T02:41:44.054Z,13.80
2022-08-24T02:44:19.367Z,13.10
2022-08-24T02:46:52.898Z,12.80
2022-08-24T02:49:23.348Z,15.10
2022-08-24T02:51:53.921Z,17.00
2022-08-24T02:54:26.688Z,17.80
2022-08-24T02:56:55.963Z,19.00
2022-08-24T02:59:28.029Z,16.60
2022-08-24T03:01:58.475Z,12.90
2022-08-24T03:04:30.095Z,16.50
2022-08-24T03:09:48.951Z,12.60
2022-08-24T03:12:18.495Z,15.70
2022-08-24T03:14:52.761Z,14.80
2022-08-24T03:17:21.695Z,15.30
2022-08-24T03:19:50.944Z,12.30
2022-08-24T03:22:23.109Z,12.90
2022-08-24T03:24:55.069Z,14.80
2022-08-24T03:29:56.034Z,16.60
2022-08-24T03:32:28.793Z,11.80
2022-08-24T03:35:00.591Z,15.90
2022-08-24T03:37:37.892Z,16.20
2022-08-24T03:40:22.469Z,14.40
2022-08-24T03:43:00.294Z,13.70
2022-08-24T03:45:42.076Z,14.20
2022-08-24T03:48:18.520Z,15.50
2022-08-24T03:50:49.486Z,14.80
2022-08-24T03:53:18.533Z,13.90
2022-08-24T03:55:49.637Z,12.10
2022-08-24T03:58:20.726Z,15.00
2022-08-24T04:00:55.984Z,13.50
2022-08-24T04:03:25.014Z,12.20
2022-08-24T04:05:57.182Z,13.10
2022-08-24T04:08:25.502Z,10.70
2022-08-24T04:10:54.610Z,15.20
2022-08-24T04:13:22.728Z,10.10
2022-08-24T04:15:53.600Z,11.40
2022-08-24T04:18:28.620Z,8.50
2022-08-24T04:21:00.034Z,8.60
2022-08-24T04:23:46.678Z,11.40
2022-08-24T04:26:25.710Z,9.40
2022-08-24T04:29:09.685Z,8.80
2022-08-24T04:31:43.031Z,10.10
2022-08-24T04:34:18.746Z,13.20
2022-08-24T04:36:47.249Z,9.30
2022-08-24T04:39:15.883Z,9.90
2022-08-24T04:42:03.179Z,11.90
2022-08-24T04:44:34.393Z,8.70
2022-08-24T04:47:02.775Z,12.10
2022-08-24T04:49:33.637Z,11.10
2022-08-24T04:54:30.654Z,10.40
2022-08-24T04:57:11.697Z,8.30
2022-08-24T04:59:44.129Z,10.20
2022-08-24T05:02:13.171Z,7.50
2022-08-24T05:04:41.466Z,10.70
2022-08-24T05:07:09.839Z,8.00
2022-08-24T05:09:41.713Z,10.70
2022-08-24T05:12:24.479Z,18.30
2022-08-24T05:15:00.708Z,16.80
2022-08-24T05:17:30.389Z,19.00
2022-08-24T05:19:58.958Z,11.40
2022-08-24T05:22:27.456Z,15.50
2022-08-24T05:24:55.853Z,11.60
2022-08-24T05:27:30.544Z,8.00
2022-08-24T05:30:00.085Z,8.60
2022-08-24T05:32:28.551Z,7.10
2022-08-24T05:34:56.955Z,9.40
2022-08-24T05:37:25.256Z,8.20
2022-08-24T05:47:11.568Z,13.40
2022-08-24T05:52:16.779Z,11.00
2022-08-24T06:13:11.288Z,13.10
2022-08-24T06:15:41.555Z,13.40
2022-08-24T06:18:20.328Z,9.70
2022-08-24T06:21:06.042Z,8.20
2022-08-24T06:23:36.019Z,11.00
2022-08-24T06:26:25.928Z,10.30
2022-08-24T06:28:58.129Z,10.20
2022-08-24T06:31:39.759Z,14.10
2022-08-24T06:34:10.474Z,11.70
2022-08-24T06:36:40.006Z,7.00
2022-08-24T06:39:10.157Z,5.80
2022-08-24T06:41:40.911Z,5.40
2022-08-24T06:44:11.760Z,9.80
2022-08-24T06:46:48.667Z,7.40
2022-08-24T06:49:16.821Z,5.10
2022-08-24T06:51:50.599Z,6.90
2022-08-24T06:54:26.313Z,6.80
2022-08-24T06:56:56.537Z,7.80
2022-08-24T06:59:32.241Z,7.80
2022-08-24T07:02:09.165Z,6.60
2022-08-24T07:04:51.553Z,7.90
2022-08-24T07:07:38.900Z,6.90
2022-08-24T07:10:09.620Z,9.70
2022-08-24T07:12:38.238Z,12.90
2022-08-24T07:15:11.537Z,13.80
2022-08-24T07:17:47.276Z,10.20
2022-08-24T07:20:17.673Z,8.80
2022-08-24T07:23:07.427Z,8.00
2022-08-24T07:28:39.882Z,9.90
2022-08-24T07:31:16.697Z,11.10
2022-08-24T07:33:56.109Z,10.30
2022-08-24T07:36:28.640Z,7.60
2022-08-24T07:39:10.673Z,7.60
2022-08-24T07:42:11.515Z,13.10
2022-08-24T07:44:38.916Z,8.60
2022-08-24T07:47:38.066Z,7.70
2022-08-24T07:50:21.773Z,9.90
2022-08-24T07:53:14.929Z,10.40
2022-08-24T07:56:08.331Z,11.20
2022-08-24T08:01:55.954Z,6.00
2022-08-24T08:04:29.123Z,9.10
2022-08-24T08:07:24.345Z,8.00
2022-08-24T08:10:07.247Z,8.20
2022-08-24T08:12:43.833Z,8.70
2022-08-24T08:15:19.648Z,7.10
2022-08-24T08:17:56.982Z,10.60
2022-08-24T08:20:29.962Z,7.10
2022-08-24T08:23:17.798Z,7.90
2022-08-24T08:26:02.151Z,8.80
2022-08-24T08:28:52.408Z,9.10
2022-08-24T08:31:27.342Z,8.20
2022-08-24T08:34:04.994Z,9.10
2022-08-24T08:36:39.347Z,6.30
2022-08-24T08:39:25.243Z,13.20
2022-08-24T08:42:27.253Z,10.30
2022-08-24T08:45:04.436Z,7.90
2022-08-24T08:48:47.686Z,7.90
2022-08-24T08:51:39.081Z,8.90
2022-08-24T08:54:24.860Z,8.90
2022-08-24T08:57:17.398Z,11.60
2022-08-24T08:59:56.767Z,8.70
2022-08-24T09:02:50.422Z,7.30
2022-08-24T09:05:57.966Z,7.70
2022-08-24T09:08:52.169Z,12.60
2022-08-24T09:11:49.470Z,7.40
2022-08-24T09:14:47.244Z,7.90
2022-08-24T09:17:35.927Z,9.60
2022-08-24T09:20:29.290Z,8.80
2022-08-24T09:23:31.565Z,7.60
2022-08-24T09:26:23.984Z,9.90
2022-08-24T09:29:38.441Z,9.10
2022-08-24T09:32:13.047Z,8.90
2022-08-24T09:35:03.678Z,8.00
2022-08-24T09:37:33.676Z,11.60
2022-08-24T09:40:09.756Z,8.70
2022-08-24T09:43:02.954Z,8.20
2022-08-24T09:45:56.148Z,12.30
2022-08-24T09:48:42.713Z,7.10
2022-08-24T09:51:22.736Z,5.00
2022-08-24T09:56:39.653Z,7.40
2022-08-24T09:59:27.895Z,10.30
2022-08-24T10:01:59.620Z,9.40
2022-08-24T10:04:43.793Z,7.60
2022-08-24T10:07:18.038Z,7.70
2022-08-24T10:10:21.518Z,6.60
2022-08-24T10:13:07.589Z,6.10
2022-08-24T10:15:48.025Z,9.60
2022-08-24T10:18:35.466Z,11.50
2022-08-24T10:21:19.351Z,8.40
2022-08-24T10:24:05.444Z,6.70
2022-08-24T10:26:58.550Z,6.70
2022-08-24T10:30:11.765Z,11.50
2022-08-24T10:33:15.671Z,9.00
2022-08-24T10:36:08.087Z,8.10
2022-08-24T10:39:00.785Z,8.50
2022-08-24T10:41:41.702Z,10.30
2022-08-24T10:44:43.926Z,7.50
2022-08-24T10:47:21.011Z,7.80
2022-08-24T10:49:55.167Z,7.50
2022-08-24T10:52:52.766Z,6.00
2022-08-24T10:55:27.820Z,6.70
2022-08-24T10:58:14.591Z,9.40
2022-08-24T11:00:43.615Z,7.90
2022-08-24T11:03:17.515Z,7.60
2022-08-24T11:05:49.998Z,8.50
2022-08-24T11:08:31.409Z,5.00
2022-08-24T11:11:07.308Z,7.60
2022-08-24T11:13:37.935Z,5.80
2022-08-24T11:16:06.884Z,7.20
2022-08-24T11:19:00.690Z,9.30
2022-08-24T11:21:34.095Z,7.60
2022-08-24T11:24:13.691Z,5.00
2022-08-24T11:26:56.525Z,5.70
2022-08-24T11:29:49.162Z,8.50
2022-08-24T11:32:45.806Z,8.20
2022-08-24T11:35:17.326Z,8.50
2022-08-24T11:37:46.477Z,7.90
2022-08-24T11:40:17.378Z,7.10
2022-08-24T11:42:54.738Z,4.10
2022-08-24T11:45:26.006Z,5.30
2022-08-24T11:47:57.305Z,5.90
2022-08-24T11:50:36.347Z,6.00
2022-08-24T11:53:23.168Z,7.80
2022-08-24T11:56:31.642Z,4.20
2022-08-24T11:59:33.144Z,4.90
2022-08-24T12:02:08.886Z,6.90
2022-08-24T12:04:46.232Z,7.00
2022-08-24T12:07:26.257Z,7.50
2022-08-24T12:10:03.686Z,5.60
2022-08-24T12:12:50.058Z,5.90
2022-08-24T12:15:46.685Z,9.90
2022-08-24T12:18:19.662Z,8.80
2022-08-24T12:20:49.872Z,6.10
2022-08-24T12:23:21.082Z,6.80
2022-08-24T12:26:03.681Z,7.90
2022-08-24T12:28:54.205Z,9.80
2022-08-24T12:31:46.601Z,8.30
2022-08-24T12:34:57.953Z,6.30
2022-08-24T12:37:35.575Z,7.90
2022-08-24T12:40:14.517Z,5.70
2022-08-24T12:42:54.947Z,6.00
2022-08-24T12:45:34.990Z,6.30
2022-08-24T12:48:20.371Z,6.40
2022-08-24T12:51:22.010Z,7.10
2022-08-24T12:54:08.658Z,7.80
2022-08-24T12:57:02.798Z,5.80
2022-08-24T12:59:46.203Z,10.00
2022-08-24T13:02:17.604Z,4.60
2022-08-24T13:04:48.790Z,6.30
2022-08-24T13:07:19.676Z,6.40
2022-08-24T13:10:04.877Z,6.80
2022-08-24T13:12:42.039Z,9.30
2022-08-24T13:15:31.322Z,4.40
2022-08-24T13:18:20.825Z,4.20
2022-08-24T13:20:49.024Z,7.00
2022-08-24T13:23:23.339Z,3.50
2022-08-24T13:25:56.505Z,7.40
2022-08-24T13:28:24.567Z,4.80
2022-08-24T13:31:18.650Z,4.00
2022-08-24T13:33:55.466Z,5.00
2022-08-24T13:36:29.412Z,8.30
2022-08-24T13:39:18.910Z,5.30
2022-08-24T13:41:56.723Z,5.70
2022-08-24T13:44:24.952Z,6.60
2022-08-24T13:47:15.445Z,9.10
2022-08-24T13:50:17.085Z,6.80
2022-08-24T13:53:21.321Z,7.90
2022-08-24T13:55:56.653Z,7.20
2022-08-24T13:58:36.833Z,6.30
2022-08-24T14:01:42.326Z,6.80
2022-08-24T14:04:19.513Z,8.50
2022-08-24T14:07:13.538Z,7.20
2022-08-24T14:09:47.366Z,7.90
2022-08-24T14:12:30.616Z,5.70
2022-08-24T14:15:24.111Z,8.10
2022-08-24T14:18:32.217Z,5.00
2022-08-24T14:21:04.195Z,7.00
2022-08-24T14:24:00.005Z,5.50
2022-08-24T14:26:34.972Z,4.90
2022-08-24T14:29:15.209Z,6.70
2022-08-24T14:31:58.829Z,7.90
2022-08-24T14:34:42.086Z,8.00
2022-08-24T14:37:13.186Z,8.20
2022-08-24T14:40:17.630Z,8.10
2022-08-24T14:42:55.554Z,7.80
2022-08-24T14:45:40.441Z,8.90
2022-08-24T14:48:39.781Z,7.10
2022-08-24T14:51:32.929Z,9.80
2022-08-24T14:54:12.909Z,9.10
2022-08-24T14:57:07.016Z,7.40
2022-08-24T14:59:55.255Z,10.50
2022-08-24T15:02:52.727Z,7.60
2022-08-24T15:05:40.731Z,10.40
2022-08-24T15:08:27.055Z,9.90
2022-08-24T15:11:13.138Z,9.50
2022-08-24T15:13:51.117Z,5.30
2022-08-24T15:16:22.051Z,9.90
2022-08-24T15:19:13.971Z,11.90
2022-08-24T15:21:45.010Z,8.60
2022-08-24T15:24:16.139Z,7.80
2022-08-24T15:26:56.368Z,6.90
2022-08-24T15:29:31.337Z,9.40
2022-08-24T15:32:12.568Z,10.40
2022-08-24T15:34:54.039Z,8.60
2022-08-24T15:37:27.087Z,6.60
2022-08-24T15:39:55.371Z,9.90
2022-08-24T15:42:24.068Z,11.00
2022-08-24T15:44:52.824Z,5.90
2022-08-24T15:47:24.742Z,5.50
2022-08-24T15:50:01.640Z,11.80
2022-08-24T15:52:45.065Z,7.00
2022-08-24T15:55:38.553Z,5.80
2022-08-24T15:58:15.957Z,6.80
2022-08-24T16:01:02.967Z,14.60
2022-08-24T16:03:54.284Z,9.30
2022-08-24T16:06:34.882Z,8.90
2022-08-24T16:09:14.829Z,8.90
2022-08-24T16:11:57.166Z,7.90
2022-08-24T16:14:30.818Z,6.00
2022-08-24T16:17:01.861Z,7.70
2022-08-24T16:19:35.536Z,12.20
2022-08-24T16:22:09.112Z,17.60
2022-08-24T16:24:40.597Z,12.80
2022-08-24T16:27:42.514Z,8.80
2022-08-24T16:30:36.290Z,9.80
2022-08-24T16:33:06.156Z,9.30
2022-08-24T16:35:34.925Z,8.50
2022-08-24T16:38:04.373Z,6.90
2022-08-24T16:40:33.800Z,11.50
2022-08-24T16:43:02.711Z,20.00
2022-08-24T16:45:35.756Z,14.30
2022-08-24T16:48:05.121Z,9.80
2022-08-24T16:50:33.433Z,10.40
2022-08-24T16:53:02.010Z,11.30
2022-08-24T16:55:30.187Z,8.60
2022-08-24T16:58:01.593Z,12.70
2022-08-24T17:00:30.339Z,18.10
2022-08-24T17:02:58.666Z,18.20
2022-08-24T17:05:28.174Z,14.30
2022-08-24T17:07:58.990Z,7.50
2022-08-24T17:10:27.698Z,10.40
2022-08-24T17:12:55.810Z,8.20
2022-08-24T17:15:24.354Z,10.30
2022-08-24T17:18:03.645Z,11.50
2022-08-24T17:20:33.900Z,13.90
2022-08-24T17:23:03.509Z,11.20
2022-08-24T17:25:32.487Z,15.80
2022-08-24T17:28:03.556Z,13.40
2022-08-24T17:30:36.157Z,18.00
2022-08-24T17:33:05.477Z,12.50
2022-08-24T17:35:34.152Z,8.70
2022-08-24T17:38:03.893Z,8.50
2022-08-24T17:40:34.088Z,10.50
2022-08-24T17:43:22.158Z,9.40
2022-08-24T17:46:02.424Z,7.00
2022-08-24T17:51:03.217Z,11.00
2022-08-24T17:53:31.495Z,9.70
2022-08-24T17:56:06.943Z,9.30
2022-08-24T17:58:55.633Z,14.10
2022-08-24T18:01:25.202Z,14.70
2022-08-24T18:03:53.763Z,11.30
2022-08-24T18:06:24.508Z,17.30
2022-08-24T18:08:56.778Z,19.90
2022-08-24T18:11:26.374Z,22.80
2022-08-24T18:13:56.016Z,11.60
2022-08-24T18:16:28.484Z,15.30
2022-08-24T18:19:02.180Z,25.60
2022-08-24T18:24:01.896Z,8.40
2022-08-24T18:26:34.580Z,12.60
2022-08-24T18:29:16.193Z,14.30
2022-08-24T18:31:48.527Z,15.50
2022-08-24T18:34:24.539Z,13.50
2022-08-24T18:36:54.911Z,13.70
2022-08-24T18:39:23.583Z,11.80
2022-08-24T18:41:53.775Z,9.20
2022-08-24T18:44:29.569Z,10.10
2022-08-24T18:47:04.037Z,12.00
2022-08-24T18:49:33.124Z,13.30
2022-08-24T18:52:03.177Z,11.80
2022-08-24T18:54:41.684Z,9.90
2022-08-24T18:57:23.543Z,13.10
2022-08-24T18:59:52.044Z,17.20
2022-08-24T19:02:33.770Z,14.80
2022-08-24T19:05:11.724Z,15.20
2022-08-24T19:07:45.037Z,13.80
2022-08-24T19:10:20.042Z,11.70
2022-08-24T19:12:56.622Z,11.60
2022-08-24T19:15:32.337Z,8.40
2022-08-24T19:18:12.211Z,9.20
2022-08-24T19:20:48.000Z,9.60
2022-08-24T19:23:27.546Z,9.50
2022-08-24T19:26:00.506Z,13.20
2022-08-24T19:28:32.093Z,8.80
2022-08-24T19:31:11.036Z,11.70
2022-08-24T19:33:46.635Z,10.10
2022-08-24T19:36:30.436Z,10.40
2022-08-24T19:38:59.608Z,7.30
2022-08-24T19:41:36.883Z,9.50
2022-08-24T19:44:27.105Z,7.80
2022-08-24T19:46:57.568Z,11.80
2022-08-24T19:49:29.071Z,16.00
2022-08-24T19:52:01.961Z,17.50
2022-08-24T19:54:37.800Z,10.30
2022-08-24T19:57:45.776Z,12.90
2022-08-24T20:00:17.591Z,13.30
2022-08-24T20:02:54.017Z,14.30
2022-08-24T20:05:26.095Z,15.90
2022-08-24T20:07:59.146Z,11.90
2022-08-24T20:10:28.032Z,14.90
2022-08-24T20:12:56.820Z,15.20
2022-08-24T20:15:25.593Z,22.30
2022-08-24T20:17:56.905Z,20.20
2022-08-24T20:20:30.505Z,11.70
2022-08-24T20:23:06.630Z,12.90
2022-08-24T20:25:42.429Z,11.50
2022-08-24T20:28:28.676Z,10.30
2022-08-24T20:30:58.578Z,9.10
2022-08-24T20:33:28.070Z,13.60
2022-08-24T20:35:57.061Z,10.60
2022-08-24T20:38:31.921Z,12.00
2022-08-24T20:41:02.204Z,8.60
2022-08-24T20:43:34.913Z,10.10
2022-08-24T20:46:12.840Z,8.30
2022-08-24T20:48:43.219Z,13.70
2022-08-24T20:51:13.784Z,11.60
2022-08-24T20:53:44.095Z,11.90
2022-08-24T20:56:21.283Z,12.50
2022-08-24T20:59:09.959Z,12.80
2022-08-24T21:01:44.081Z,10.20
2022-08-24T21:04:13.511Z,11.20
2022-08-24T21:06:44.672Z,13.20
2022-08-24T21:09:15.334Z,11.50
2022-08-24T21:11:47.344Z,14.00
2022-08-24T21:14:20.324Z,10.10
2022-08-24T21:16:49.020Z,10.20
2022-08-24T21:19:19.485Z,9.10
2022-08-24T21:21:52.901Z,14.00
2022-08-24T21:24:21.122Z,11.80
2022-08-24T21:26:50.549Z,14.00
2022-08-24T21:29:19.862Z,10.10
2022-08-24T21:32:07.855Z,12.70
2022-08-24T21:34:43.438Z,12.70
2022-08-24T21:37:17.036Z,15.90
2022-08-24T21:39:54.599Z,9.70
2022-08-24T21:42:28.142Z,11.40
2022-08-24T21:44:59.947Z,8.90
2022-08-24T21:47:28.253Z,13.60
2022-08-24T21:50:01.642Z,15.30
2022-08-24T21:52:32.838Z,10.70
2022-08-24T21:55:01.382Z,9.50
2022-08-24T21:57:30.907Z,9.50
2022-08-24T22:00:00.775Z,9.10
2022-08-24T22:02:29.637Z,17.40
2022-08-24T22:04:58.401Z,9.70
2022-08-24T22:07:49.529Z,13.60
2022-08-24T22:10:17.957Z,10.10
2022-08-24T22:12:46.334Z,14.70
2022-08-24T22:15:19.411Z,6.60
2022-08-24T22:17:53.646Z,10.30
2022-08-24T22:23:00.745Z,16.10
2022-08-24T22:25:30.155Z,8.30
2022-08-24T22:27:59.145Z,11.40
2022-08-24T22:30:27.887Z,9.20
2022-08-24T22:32:59.426Z,11.00
2022-08-24T22:35:27.848Z,14.00
2022-08-24T22:37:56.698Z,10.60
2022-08-24T22:40:24.874Z,15.40
2022-08-24T22:42:58.216Z,11.80
2022-08-24T22:45:26.631Z,13.30
2022-08-24T22:48:00.394Z,14.10
2022-08-24T22:50:29.028Z,11.20
2022-08-24T22:52:58.432Z,10.10
2022-08-24T22:55:40.717Z,9.20
2022-08-24T22:58:09.211Z,10.50
2022-08-24T23:00:40.804Z,12.40
2022-08-24T23:03:14.347Z,12.60
2022-08-24T23:05:42.820Z,8.90
2022-08-24T23:08:11.037Z,12.40
2022-08-24T23:10:50.506Z,14.70
2022-08-24T23:13:23.704Z,12.60
2022-08-24T23:16:01.198Z,7.90
2022-08-24T23:18:47.977Z,9.70
2022-08-24T23:21:24.314Z,12.40
2022-08-24T23:23:58.711Z,8.90
2022-08-24T23:26:42.421Z,10.80
2022-08-24T23:29:28.054Z,11.70
2022-08-24T23:31:59.115Z,13.70
2022-08-24T23:34:29.104Z,13.40
2022-08-24T23:37:03.446Z,11.80
2022-08-24T23:39:32.101Z,8.90
2022-08-24T23:42:17.524Z,12.10
2022-08-24T23:44:47.667Z,16.10
2022-08-24T23:47:20.078Z,11.70
2022-08-24T23:49:52.979Z,8.90
2022-08-24T23:52:26.492Z,12.80
2022-08-24T23:56:14.071Z,11.70
2022-08-24T23:58:47.138Z,7.70
